Time;durP1;ratioP1;P1;durP2;ratioP2;P2;SDS_P1;SDS_P2;PMS_P1;PMS_P2;Temp;Humidity;BMP_temperature;BMP_pressure;BME280_temperature;BME280_humidity;BME280_pressure;Samples;Min_cycle;Max_cycle;Signal;HPM_P1;HPM_P2
2021/04/08 00:01:27;;;;;;;9.5;5;;;;;;;-1.84;100;98297.75;;;;
2021/04/08 00:11:24;;;;;;;8.6;6.3;;;;;;;-1.79;100;98292.58;;;;
2021/04/08 00:21:24;;;;;;;10.5;6.2;;;;;;;-1.73;100;98299.56;;;;
2021/04/08 00:31:19;;;;;;;15.2;6.9;;;;;;;-1.75;100;98300.84;;;;
2021/04/08 00:41:16;;;;;;;15.5;6.4;;;;;;;-1.82;100;98297.53;;;;
2021/04/08 00:51:14;;;;;;;8.4;4.8;;;;;;;-1.81;100;98294.67;;;;
2021/04/08 01:01:11;;;;;;;14.4;8;;;;;;;-1.86;100;98302.48;;;;
2021/04/08 01:11:08;;;;;;;7.9;5.9;;;;;;;-1.86;100;98309.59;;;;
2021/04/08 01:21:06;;;;;;;10.9;7.2;;;;;;;-1.98;100;98307.01;;;;
2021/04/08 01:31:03;;;;;;;8.7;5.4;;;;;;;-2.1;100;98311.5;;;;
2021/04/08 01:41:00;;;;;;;13.5;7.5;;;;;;;-2.1;100;98316.78;;;;
2021/04/08 01:50:58;;;;;;;6.9;5.6;;;;;;;-2.19;100;98321.63;;;;
2021/04/08 02:00:55;;;;;;;9.2;6.1;;;;;;;-2.12;100;98310.94;;;;
2021/04/08 02:20:49;;;;;;;11.4;6.3;;;;;;;-2.06;100;98294.16;;;;
2021/04/08 02:30:47;;;;;;;9.2;5.1;;;;;;;-1.82;100;98294.89;;;;
2021/04/08 02:40:44;;;;;;;6.5;4.3;;;;;;;-1.69;100;98302.53;;;;
2021/04/08 02:50:44;;;;;;;8.7;5.4;;;;;;;-1.66;100;98313.43;;;;
2021/04/08 03:00:39;;;;;;;7.6;3.7;;;;;;;-1.83;100;98314.41;;;;
2021/04/08 03:10:36;;;;;;;7;5.6;;;;;;;-1.85;100;98321.77;;;;
2021/04/08 03:20:33;;;;;;;7.7;4.6;;;;;;;-1.79;100;98326.11;;;;
2021/04/08 03:30:31;;;;;;;7.6;4.9;;;;;;;-1.64;100;98314.02;;;;
2021/04/08 03:40:28;;;;;;;8.3;4.9;;;;;;;-1.46;100;98320.95;;;;
2021/04/08 03:50:25;;;;;;;8.8;5.6;;;;;;;-1.24;100;98331.63;;;;
2021/04/08 04:00:22;;;;;;;9.8;4.6;;;;;;;-1.03;100;98334.39;;;;
2021/04/08 04:10:21;;;;;;;7.5;6;;;;;;;-0.8;100;98341.37;;;;
2021/04/08 04:20:17;;;;;;;9.5;6.4;;;;;;;-0.6;100;98362.08;;;;
2021/04/08 04:30:15;;;;;;;9.2;6.7;;;;;;;-0.45;100;98361.52;;;;
2021/04/08 04:40:12;;;;;;;7.8;4.8;;;;;;;-0.22;100;98359.48;;;;
2021/04/08 04:50:10;;;;;;;9.3;6.4;;;;;;;0.11;100;98368.38;;;;
2021/04/08 05:00:07;;;;;;;12.1;8;;;;;;;0.14;100;98383.81;;;;
2021/04/08 05:10:05;;;;;;;12.9;8.3;;;;;;;0.44;100;98397.44;;;;
2021/04/08 05:20:02;;;;;;;10;7.8;;;;;;;0.47;100;98410.2;;;;
2021/04/08 05:30:01;;;;;;;9.9;6.7;;;;;;;0.24;100;98431.64;;;;
2021/04/08 05:39:58;;;;;;;12.7;6.6;;;;;;;0.21;100;98427.61;;;;
2021/04/08 05:49:55;;;;;;;10.4;7;;;;;;;0.08;100;98441.2;;;;
2021/04/08 05:59:52;;;;;;;8.4;7;;;;;;;0.07;100;98460.79;;;;
2021/04/08 06:09:50;;;;;;;9.6;6.9;;;;;;;0.27;100;98470.9;;;;
2021/04/08 06:19:48;;;;;;;13.9;9.6;;;;;;;0.33;100;98499.07;;;;
2021/04/08 06:29:45;;;;;;;14.2;9.3;;;;;;;0.6;100;98496.52;;;;
2021/04/08 06:39:45;;;;;;;11.8;10.5;;;;;;;0.73;100;98509.44;;;;
2021/04/08 06:49:48;;;;;;;12.4;9.5;;;;;;;1.04;100;98527.34;;;;
2021/04/08 06:59:38;;;;;;;14.8;10.3;;;;;;;1.58;100;98549.44;;;;
2021/04/08 07:09:36;;;;;;;16.6;12.8;;;;;;;1.95;100;98554.83;;;;
2021/04/08 07:19:34;;;;;;;13.3;10;;;;;;;2.26;100;98567.32;;;;
2021/04/08 07:29:31;;;;;;;14.2;10.8;;;;;;;2.39;100;98582.88;;;;
2021/04/08 07:39:29;;;;;;;12.3;10.3;;;;;;;2.2;100;98623.38;;;;
2021/04/08 07:49:27;;;;;;;14.5;9.9;;;;;;;2.1;100;98620.63;;;;
2021/04/08 07:59:26;;;;;;;14.7;11.2;;;;;;;2.22;100;98647.87;;;;
2021/04/08 08:09:23;;;;;;;29.4;16.1;;;;;;;2.46;100;98654.47;;;;
2021/04/08 08:19:21;;;;;;;15.9;9.3;;;;;;;2.44;100;98672.52;;;;
2021/04/08 08:29:19;;;;;;;15.5;12;;;;;;;2.3;100;98688.08;;;;
2021/04/08 08:39:16;;;;;;;24.8;13.2;;;;;;;2.28;100;98702.69;;;;
2021/04/08 08:49:15;;;;;;;13.9;9;;;;;;;2.54;100;98734.59;;;;
2021/04/08 08:59:12;;;;;;;13.1;9.2;;;;;;;3.18;100;98739.12;;;;
2021/04/08 09:09:11;;;;;;;15.2;10.6;;;;;;;3.76;99.66602;98733.6;;;;
2021/04/08 09:19:09;;;;;;;11.4;8.3;;;;;;;3.08;100;98741.7;;;;
2021/04/08 09:29:07;;;;;;;13.8;9.7;;;;;;;3.29;100;98754.92;;;;
2021/04/08 09:39:04;;;;;;;13.5;7.9;;;;;;;3.55;94.59766;98755.88;;;;
2021/04/08 09:49:02;;;;;;;10.3;6.7;;;;;;;3.85;90.82813;98761.36;;;;
2021/04/08 09:59:00;;;;;;;10.8;4.9;;;;;;;4.34;85.42188;98763.71;;;;
2021/04/08 10:08:58;;;;;;;9.2;4.6;;;;;;;4.58;83.05957;98772.03;;;;
2021/04/08 10:18:56;;;;;;;6.2;3.6;;;;;;;5.19;75.25098;98771.02;;;;
2021/04/08 10:28:55;;;;;;;7;4.1;;;;;;;5.01;76.01074;98767.01;;;;
2021/04/08 10:38:53;;;;;;;7.8;4.5;;;;;;;4.93;77.22168;98783.55;;;;
2021/04/08 10:48:51;;;;;;;10.8;6.7;;;;;;;2.9;100;98833.4;;;;
2021/04/08 10:58:49;;;;;;;9.2;4.5;;;;;;;2.35;100;98825.63;;;;
2021/04/08 11:08:51;;;;;;;9.5;6.4;;;;;;;3.03;100;98822.33;;;;
2021/04/08 11:18:45;;;;;;;5.9;2.6;;;;;;;3.75;100;98830.61;;;;
2021/04/08 11:28:44;;;;;;;9.1;5.8;;;;;;;3.62;96.00391;98856.91;;;;
2021/04/08 11:38:44;;;;;;;7.5;4.1;;;;;;;2.4;100;98894.82;;;;
2021/04/08 11:48:39;;;;;;;7.9;3.8;;;;;;;1.67;100;98906.55;;;;
2021/04/08 11:58:37;;;;;;;6.6;4.3;;;;;;;2.61;100;98909.98;;;;
2021/04/08 12:08:35;;;;;;;4.8;2.9;;;;;;;3.36;100;98890.55;;;;
2021/04/08 12:18:32;;;;;;;5.9;2.7;;;;;;;4.31;100;98884.27;;;;
2021/04/08 12:28:35;;;;;;;7.2;3.6;;;;;;;5.4;97.15527;98871.5;;;;
2021/04/08 12:38:29;;;;;;;7;3.6;;;;;;;6.4;89.83008;98872.45;;;;
2021/04/08 12:48:27;;;;;;;10.2;4.6;;;;;;;6.12;84.125;98880.28;;;;
2021/04/08 12:58:25;;;;;;;9.6;5.8;;;;;;;5.75;86.65723;98892.09;;;;
2021/04/08 13:08:24;;;;;;;7.8;5.2;;;;;;;4.27;94.50195;98923.22;;;;
2021/04/08 13:18:22;;;;;;;11.4;6;;;;;;;3.16;100;98943.63;;;;
2021/04/08 13:28:20;;;;;;;5.5;2.9;;;;;;;3.33;100;98949.66;;;;
2021/04/08 13:38:18;;;;;;;5.2;3.7;;;;;;;4.02;99.2959;98954;;;;
2021/04/08 13:48:16;;;;;;;11.8;5.9;;;;;;;4.71;95.36133;98961.88;;;;
2021/04/08 13:58:14;;;;;;;7.6;4.5;;;;;;;4.61;95.21582;98982.38;;;;
2021/04/08 14:08:12;;;;;;;4.9;1.8;;;;;;;3.18;100;99053.36;;;;
2021/04/08 14:18:10;;;;;;;4.9;2.7;;;;;;;1.03;100;99074.24;;;;
2021/04/08 14:28:08;;;;;;;4.3;2.6;;;;;;;0.81;100;99061.58;;;;
2021/04/08 14:38:06;;;;;;;6.1;3.9;;;;;;;1.48;100;99040.63;;;;
2021/04/08 14:48:04;;;;;;;6.4;4.9;;;;;;;2.38;100;99048.53;;;;
2021/04/08 14:58:01;;;;;;;8.5;5.8;;;;;;;2.19;100;99065.77;;;;
2021/04/08 15:07:59;;;;;;;10.5;6.9;;;;;;;2.89;100;99074.82;;;;
2021/04/08 15:17:57;;;;;;;10.7;8.6;;;;;;;3.51;100;99077.18;;;;
2021/04/08 15:27:55;;;;;;;10.3;7.4;;;;;;;3.23;100;99072.86;;;;
2021/04/08 15:37:53;;;;;;;10;5;;;;;;;4.86;100;99079.42;;;;
2021/04/08 15:47:53;;;;;;;8.5;5.4;;;;;;;6.16;98.2334;99090.08;;;;
2021/04/08 15:57:50;;;;;;;10.2;3.9;;;;;;;5.94;96.11035;99093.79;;;;
2021/04/08 16:07:48;;;;;;;5.1;3.9;;;;;;;7.45;90.79395;99119.66;;;;
2021/04/08 16:17:46;;;;;;;7.8;5.5;;;;;;;6.28;93.20605;99141.49;;;;
2021/04/08 16:27:47;;;;;;;8;4.6;;;;;;;4.83;97.06934;99153.91;;;;
2021/04/08 16:37:43;;;;;;;8.5;5.5;;;;;;;3.81;100;99162.84;;;;
2021/04/08 16:47:41;;;;;;;10.8;6.5;;;;;;;3.61;100;99164.46;;;;
2021/04/08 16:57:39;;;;;;;12.9;8.7;;;;;;;2.65;100;99165.73;;;;
2021/04/08 17:07:37;;;;;;;13.6;9.2;;;;;;;2.01;100;99160.65;;;;
2021/04/08 17:17:35;;;;;;;17.9;10.7;;;;;;;1.41;100;99178.88;;;;
2021/04/08 17:27:33;;;;;;;15.9;13.1;;;;;;;1.29;100;99179.91;;;;
2021/04/08 17:37:32;;;;;;;17.1;12.8;;;;;;;1.05;100;99195.05;;;;
2021/04/08 17:47:29;;;;;;;21;15.1;;;;;;;1.01;100;99213.27;;;;
2021/04/08 17:57:26;;;;;;;26.8;21;;;;;;;0.98;100;99229.66;;;;
2021/04/08 18:07:24;;;;;;;38.7;24;;;;;;;0.93;100;99242.02;;;;
2021/04/08 18:17:22;;;;;;;29.6;20.3;;;;;;;1.09;100;99256.44;;;;
2021/04/08 18:27:19;;;;;;;31.7;22.7;;;;;;;1.24;100;99283.36;;;;
2021/04/08 18:37:17;;;;;;;31;23.1;;;;;;;1.28;100;99289.83;;;;
2021/04/08 18:47:16;;;;;;;36.6;23.9;;;;;;;1.33;100;99308.52;;;;
2021/04/08 18:57:13;;;;;;;29.7;21.4;;;;;;;1.17;100;99317.16;;;;
2021/04/08 19:07:11;;;;;;;29.9;22;;;;;;;0.93;100;99322.44;;;;
2021/04/08 19:17:08;;;;;;;34.5;23;;;;;;;0.64;100;99323.25;;;;
2021/04/08 19:27:06;;;;;;;30.7;22.1;;;;;;;0.47;100;99338.17;;;;
2021/04/08 19:37:04;;;;;;;36;27.2;;;;;;;0.37;100;99337.89;;;;
2021/04/08 19:47:04;;;;;;;28.6;23.2;;;;;;;0.29;100;99348.8;;;;
2021/04/08 19:56:59;;;;;;;31.3;25.9;;;;;;;0.41;100;99345.19;;;;
2021/04/08 20:06:57;;;;;;;27.7;21.8;;;;;;;0.43;100;99353.72;;;;
2021/04/08 20:16:54;;;;;;;23.6;19.3;;;;;;;0.48;100;99361.83;;;;
2021/04/08 20:26:52;;;;;;;31.2;21.2;;;;;;;0.56;100;99358.03;;;;
2021/04/08 20:36:50;;;;;;;29.8;19.2;;;;;;;0.53;100;99361.14;;;;
2021/04/08 20:46:51;;;;;;;19.4;14.4;;;;;;;0.58;100;99368.44;;;;
2021/04/08 20:56:45;;;;;;;26.4;17.2;;;;;;;0.6;100;99372.47;;;;
2021/04/08 21:06:43;;;;;;;18.5;16.2;;;;;;;0.67;100;99375.84;;;;
2021/04/08 21:16:41;;;;;;;23.7;16.4;;;;;;;0.74;100;99379.23;;;;
2021/04/08 21:26:38;;;;;;;19.9;14.1;;;;;;;0.92;100;99387.15;;;;
2021/04/08 21:36:36;;;;;;;15.6;12.8;;;;;;;0.93;100;99386.13;;;;
2021/04/08 21:46:34;;;;;;;15.8;10.8;;;;;;;0.78;100;99393.67;;;;
2021/04/08 21:56:31;;;;;;;19.2;14;;;;;;;0.59;100;99405.33;;;;
2021/04/08 22:06:29;;;;;;;19.5;14.5;;;;;;;0.45;100;99398.59;;;;
2021/04/08 22:16:27;;;;;;;17;12.6;;;;;;;0.3;100;99403.44;;;;
2021/04/08 22:26:24;;;;;;;16.9;11;;;;;;;0.29;100;99405.28;;;;
2021/04/08 22:36:23;;;;;;;13.9;10.3;;;;;;;0.24;100;99409.63;;;;
2021/04/08 22:46:20;;;;;;;15.1;10.9;;;;;;;0.25;100;99409.39;;;;
2021/04/08 22:56:18;;;;;;;13.1;11;;;;;;;0.3;100;99419.34;;;;
2021/04/08 23:06:17;;;;;;;11.6;8.1;;;;;;;0.19;100;99422.72;;;;
2021/04/08 23:16:13;;;;;;;11.8;8.4;;;;;;;0.11;100;99423;;;;
2021/04/08 23:26:10;;;;;;;12.1;8.7;;;;;;;0.02;100;99419.02;;;;
2021/04/08 23:36:08;;;;;;;13.3;10.2;;;;;;;0.05;100;99418.58;;;;
2021/04/08 23:46:05;;;;;;;16.9;10.3;;;;;;;-0.03;100;99422.32;;;;
2021/04/08 23:56:03;;;;;;;13.4;8.7;;;;;;;-0.15;100;99421.43;;;;
